Time;durP1;ratioP1;P1;durP2;ratioP2;P2;SDS_P1;SDS_P2;PMS_P1;PMS_P2;Temp;Humidity;BMP_temperature;BMP_pressure;BME280_temperature;BME280_humidity;BME280_pressure;Samples;Min_cycle;Max_cycle;Signal;HPM_P1;HPM_P2
2023/01/22 00:00:21;;;;;;;;;;;1.10;99.90;;;;;;5056134;28;19950;-63
2023/01/22 00:02:47;;;;;;;;;;;1.10;99.90;;;;;;5073952;28;20444;-63
2023/01/22 00:05:13;;;;;;;;;;;1.10;99.90;;;;;;5074283;28;19958;-62
2023/01/22 00:07:38;;;;;;;;;;;1.10;99.90;;;;;;5074054;28;20320;-63
2023/01/22 00:10:04;;;;;;;;;;;1.10;99.90;;;;;;5074212;28;19908;-63
2023/01/22 00:12:30;;;;;;;;;;;1.10;99.90;;;;;;5074127;28;19909;-62
2023/01/22 00:14:55;;;;;;;;;;;1.10;99.90;;;;;;5074130;28;20384;-62
2023/01/22 00:17:20;;;;;;;;;;;1.10;99.90;;;;;;5073867;28;20405;-62
2023/01/22 00:19:46;;;;;;;;;;;1.10;99.90;;;;;;5074056;28;20280;-63
2023/01/22 00:22:11;;;;;;;;;;;1.10;99.90;;;;;;5073699;28;19912;-62
2023/01/22 00:24:40;;;;;;;;;;;1.10;99.90;;;;;;5073731;28;20003;-63
2023/01/22 00:27:05;;;;;;;;;;;1.10;99.90;;;;;;5073973;28;19919;-63
2023/01/22 00:29:31;;;;;;;;;;;1.10;99.90;;;;;;5073668;28;19912;-62
2023/01/22 00:31:56;;;;;;;;;;;1.10;99.90;;;;;;5073639;28;19916;-62
2023/01/22 00:34:22;;;;;;;;;;;1.00;99.90;;;;;;5073620;28;19948;-62
2023/01/22 00:36:47;;;;;;;;;;;1.00;99.90;;;;;;5073571;28;19909;-62
2023/01/22 00:39:13;;;;;;;;;;;1.00;99.90;;;;;;5073585;28;19912;-62
2023/01/22 00:41:40;;;;;;;;;;;0.90;99.90;;;;;;5073509;28;19991;-62
2023/01/22 00:44:05;;;;;;;;;;;0.90;99.90;;;;;;5073766;28;19917;-63
2023/01/22 00:46:31;;;;;;;;;;;0.80;99.90;;;;;;5073525;28;19970;-63
2023/01/22 00:48:57;;;;;;;;;;;0.80;99.90;;;;;;5073716;28;19913;-63
2023/01/22 00:51:22;;;;;;;;;;;0.80;99.90;;;;;;5073759;28;20381;-63
2023/01/22 00:53:48;;;;;;;;;;;0.80;99.90;;;;;;5073513;28;19909;-62
2023/01/22 00:56:13;;;;;;;;;;;0.80;99.90;;;;;;5073695;28;19909;-63
2023/01/22 00:58:39;;;;;;;;;;;0.80;99.90;;;;;;5073387;28;20370;-63
2023/01/22 01:01:04;;;;;;;;;;;0.70;99.90;;;;;;5073383;28;20407;-62
2023/01/22 01:03:30;;;;;;;;;;;0.80;99.90;;;;;;5074118;28;19912;-62
2023/01/22 01:05:58;;;;;;;;;;;0.70;99.90;;;;;;5077648;28;19947;-62
2023/01/22 01:08:24;;;;;;;;;;;0.70;99.90;;;;;;5077587;28;19958;-63
2023/01/22 01:10:58;;;;;;;;;;;0.70;99.90;;;;;;5077294;28;20286;-62
2023/01/22 01:13:24;;;;;;;;;;;0.70;99.90;;;;;;5077256;28;19908;-63
2023/01/22 01:15:49;;;;;;;;;;;0.70;99.90;;;;;;5077437;28;19915;-63
2023/01/22 01:18:15;;;;;;;;;;;0.70;99.90;;;;;;5077149;28;19919;-63
2023/01/22 01:20:40;;;;;;;;;;;0.80;99.90;;;;;;5077362;28;19908;-62
2023/01/22 01:23:06;;;;;;;;;;;0.80;99.90;;;;;;5077226;28;19912;-62
2023/01/22 01:25:31;;;;;;;;;;;0.80;99.90;;;;;;5077268;28;20415;-62
2023/01/22 01:27:58;;;;;;;;;;;0.90;99.90;;;;;;5077200;28;19961;-63
2023/01/22 01:30:23;;;;;;;;;;;0.90;99.90;;;;;;5076916;28;20371;-63
2023/01/22 01:32:49;;;;;;;;;;;0.90;99.90;;;;;;5076870;28;19909;-63
2023/01/22 01:35:14;;;;;;;;;;;0.90;99.90;;;;;;5076854;28;20075;-63
2023/01/22 01:37:39;;;;;;;;;;;0.90;99.90;;;;;;5076984;28;19909;-62
2023/01/22 01:40:05;;;;;;;;;;;0.90;99.90;;;;;;5076943;28;19912;-63
2023/01/22 01:42:33;;;;;;;;;;;0.90;99.90;;;;;;5058689;28;19920;-63
2023/01/22 01:45:19;;;;;;;;;;;0.90;99.90;;;;;;5076647;28;19909;-63
2023/01/22 01:47:45;;;;;;;;;;;0.90;99.90;;;;;;5076483;28;20014;-62
2023/01/22 01:50:10;;;;;;;;;;;0.90;99.90;;;;;;5076908;28;19934;-63
2023/01/22 01:52:36;;;;;;;;;;;1.00;99.90;;;;;;5076445;28;19909;-63
2023/01/22 01:55:02;;;;;;;;;;;1.00;99.90;;;;;;5076743;28;19909;-63
2023/01/22 01:57:30;;;;;;;;;;;0.90;99.90;;;;;;5076670;28;19909;-63
2023/01/22 01:59:56;;;;;;;;;;;0.90;99.90;;;;;;5076638;28;19912;-63
2023/01/22 02:02:22;;;;;;;;;;;0.90;99.90;;;;;;5076270;28;19919;-63
2023/01/22 02:04:48;;;;;;;;;;;0.90;99.90;;;;;;5076335;28;19908;-63
2023/01/22 02:07:14;;;;;;;;;;;0.90;99.90;;;;;;5076529;28;19932;-63
2023/01/22 02:09:39;;;;;;;;;;;0.90;99.90;;;;;;5076204;28;20366;-63
2023/01/22 02:12:05;;;;;;;;;;;0.90;99.90;;;;;;5076126;28;20030;-63
2023/01/22 02:14:32;;;;;;;;;;;0.90;99.90;;;;;;5075641;28;19958;-63
2023/01/22 02:16:59;;;;;;;;;;;0.90;99.90;;;;;;5076074;28;19909;-63
2023/01/22 02:19:24;;;;;;;;;;;0.80;99.90;;;;;;5076058;28;19908;-63
2023/01/22 02:21:50;;;;;;;;;;;0.90;99.90;;;;;;5075908;28;19916;-63
2023/01/22 02:24:15;;;;;;;;;;;0.90;99.90;;;;;;5076210;28;19913;-62
2023/01/22 02:26:42;;;;;;;;;;;0.90;99.90;;;;;;5075853;28;19909;-63
2023/01/22 02:29:08;;;;;;;;;;;0.90;99.90;;;;;;5075816;28;19909;-62
2023/01/22 02:31:35;;;;;;;;;;;0.90;99.90;;;;;;5057870;28;19908;-63
2023/01/22 02:34:01;;;;;;;;;;;0.80;99.90;;;;;;5075778;28;19959;-63
2023/01/22 02:36:27;;;;;;;;;;;0.90;99.90;;;;;;5075669;28;19908;-63
2023/01/22 02:38:53;;;;;;;;;;;0.90;99.90;;;;;;5075924;28;19939;-62
2023/01/22 02:41:18;;;;;;;;;;;0.90;99.90;;;;;;5075419;28;19908;-62
2023/01/22 02:43:44;;;;;;;;;;;0.90;99.90;;;;;;5075516;28;19916;-62
2023/01/22 02:46:09;;;;;;;;;;;0.90;99.90;;;;;;5075766;28;19916;-63
2023/01/22 02:48:35;;;;;;;;;;;0.90;99.90;;;;;;5075445;28;19912;-63
2023/01/22 02:51:00;;;;;;;;;;;0.80;99.90;;;;;;5075443;28;19908;-63
2023/01/22 02:53:26;;;;;;;;;;;0.90;99.90;;;;;;5057391;28;19909;-63
2023/01/22 02:55:51;;;;;;;;;;;0.90;99.90;;;;;;5075348;28;19947;-63
2023/01/22 02:58:17;;;;;;;;;;;0.90;99.90;;;;;;5075523;28;19954;-63
2023/01/22 03:00:42;;;;;;;;;;;0.80;99.90;;;;;;5075571;28;19908;-62
2023/01/22 03:03:14;;;;;;;;;;;0.90;99.90;;;;;;5075038;28;20354;-62
2023/01/22 03:05:45;;;;;;;;;;;0.80;99.90;;;;;;5075107;28;19912;-62
2023/01/22 03:08:11;;;;;;;;;;;0.80;99.90;;;;;;5075330;28;19958;-62
2023/01/22 03:10:36;;;;;;;;;;;0.80;99.90;;;;;;5074985;28;20324;-62
2023/01/22 03:21:19;;;;;;;;;;;0.70;99.90;;;;;;5074600;28;19909;-63
2023/01/22 03:23:45;;;;;;;;;;;0.70;99.90;;;;;;5074682;28;19916;-62
2023/01/22 03:26:11;;;;;;;;;;;0.70;99.90;;;;;;5073879;28;19916;-63
2023/01/22 03:28:36;;;;;;;;;;;0.70;99.90;;;;;;5074635;28;19908;-63
2023/01/22 03:31:02;;;;;;;;;;;0.70;99.90;;;;;;5074852;28;20289;-63
2023/01/22 03:33:27;;;;;;;;;;;0.70;99.90;;;;;;5074551;28;20267;-63
2023/01/22 03:35:57;;;;;;;;;;;0.70;99.90;;;;;;5074505;28;19908;-63
2023/01/22 03:38:23;;;;;;;;;;;0.70;99.90;;;;;;5056624;28;19954;-63
2023/01/22 03:40:48;;;;;;;;;;;0.70;99.90;;;;;;5056653;28;19908;-63
2023/01/22 03:43:14;;;;;;;;;;;0.70;99.90;;;;;;5074208;28;20016;-63
2023/01/22 03:45:39;;;;;;;;;;;0.70;99.90;;;;;;5074592;28;19908;-62
2023/01/22 03:48:05;;;;;;;;;;;0.70;99.90;;;;;;5074550;28;19919;-63
2023/01/22 03:50:30;;;;;;;;;;;0.70;99.90;;;;;;5074540;28;20263;-63
2023/01/22 03:52:56;;;;;;;;;;;0.70;99.90;;;;;;5074498;28;19916;-63
2023/01/22 03:55:24;;;;;;;;;;;0.80;99.90;;;;;;5074411;28;19916;-63
2023/01/22 03:57:49;;;;;;;;;;;0.70;99.90;;;;;;5074426;28;20366;-63
2023/01/22 04:00:15;;;;;;;;;;;0.70;99.90;;;;;;5074137;28;19919;-63
2023/01/22 04:02:40;;;;;;;;;;;0.70;99.90;;;;;;5074242;28;19920;-63
2023/01/22 04:05:06;;;;;;;;;;;0.70;99.90;;;;;;5074010;28;19909;-63
2023/01/22 04:07:31;;;;;;;;;;;0.70;99.90;;;;;;5074262;28;19919;-63
2023/01/22 04:09:57;;;;;;;;;;;0.70;99.90;;;;;;5074226;28;19909;-63
2023/01/22 04:12:22;;;;;;;;;;;0.70;99.90;;;;;;5073972;28;20368;-63
2023/01/22 04:14:48;;;;;;;;;;;0.70;99.90;;;;;;5073849;28;20279;-64
2023/01/22 04:17:13;;;;;;;;;;;0.80;99.90;;;;;;5073871;28;19931;-63
2023/01/22 04:19:39;;;;;;;;;;;0.80;99.90;;;;;;5073808;28;19909;-63
2023/01/22 04:22:04;;;;;;;;;;;0.80;99.90;;;;;;5073669;28;19960;-63
2023/01/22 04:24:29;;;;;;;;;;;0.80;99.90;;;;;;5073739;28;19951;-63
2023/01/22 04:26:55;;;;;;;;;;;0.80;99.90;;;;;;5073753;28;19920;-63
2023/01/22 04:29:20;;;;;;;;;;;0.80;99.90;;;;;;5073963;28;19909;-63
2023/01/22 04:31:46;;;;;;;;;;;0.80;99.90;;;;;;5055793;28;19955;-63
2023/01/22 04:34:12;;;;;;;;;;;0.80;99.90;;;;;;5073655;28;19909;-63
2023/01/22 04:36:37;;;;;;;;;;;0.80;99.90;;;;;;5073876;28;20421;-63
2023/01/22 04:39:02;;;;;;;;;;;0.80;99.90;;;;;;5073463;28;19954;-63
2023/01/22 04:41:28;;;;;;;;;;;0.80;99.90;;;;;;5073274;28;19908;-62
2023/01/22 04:43:53;;;;;;;;;;;0.80;99.90;;;;;;5073525;28;19982;-62
2023/01/22 04:46:19;;;;;;;;;;;0.80;99.90;;;;;;5073790;28;19908;-63
2023/01/22 04:48:45;;;;;;;;;;;0.80;99.90;;;;;;5073521;28;19908;-63
2023/01/22 04:51:11;;;;;;;;;;;0.80;99.90;;;;;;5073764;28;19908;-63
2023/01/22 04:53:37;;;;;;;;;;;0.80;99.90;;;;;;5073469;28;20374;-63
2023/01/22 04:56:02;;;;;;;;;;;0.80;99.90;;;;;;5073725;28;20442;-63
2023/01/22 04:58:28;;;;;;;;;;;0.80;99.90;;;;;;5055813;28;19978;-63
2023/01/22 05:00:55;;;;;;;;;;;0.80;99.90;;;;;;5073435;28;19916;-63
2023/01/22 05:03:20;;;;;;;;;;;0.70;99.90;;;;;;5073356;28;20030;-63
2023/01/22 05:05:46;;;;;;;;;;;0.80;99.90;;;;;;5073317;28;19915;-63
2023/01/22 05:08:11;;;;;;;;;;;0.80;99.90;;;;;;5073580;28;19908;-63
2023/01/22 05:10:36;;;;;;;;;;;0.80;99.90;;;;;;5073561;28;19915;-63
2023/01/22 05:13:03;;;;;;;;;;;0.80;99.90;;;;;;5073237;28;19995;-63
2023/01/22 05:15:28;;;;;;;;;;;0.80;99.90;;;;;;5073514;28;19912;-63
2023/01/22 05:17:54;;;;;;;;;;;0.70;99.90;;;;;;5073236;28;19997;-63
2023/01/22 05:20:20;;;;;;;;;;;0.80;99.90;;;;;;5073225;28;19909;-63
2023/01/22 05:22:45;;;;;;;;;;;0.80;99.90;;;;;;5073376;28;20011;-63
2023/01/22 05:25:11;;;;;;;;;;;0.80;99.90;;;;;;5073180;28;19909;-63
2023/01/22 05:27:36;;;;;;;;;;;0.80;99.90;;;;;;5073383;28;19915;-63
2023/01/22 05:30:02;;;;;;;;;;;0.80;99.90;;;;;;5073041;28;19974;-62
2023/01/22 05:32:28;;;;;;;;;;;0.80;99.90;;;;;;5055182;28;19915;-63
2023/01/22 05:34:53;;;;;;;;;;;0.80;99.90;;;;;;5073076;28;19956;-63
2023/01/22 05:37:19;;;;;;;;;;;0.80;99.90;;;;;;5073064;28;19909;-62
2023/01/22 05:39:44;;;;;;;;;;;0.80;99.90;;;;;;5073048;28;19963;-63
2023/01/22 05:42:12;;;;;;;;;;;0.80;99.90;;;;;;5072721;28;20012;-63
2023/01/22 05:44:37;;;;;;;;;;;0.70;99.90;;;;;;5072925;28;19912;-62
2023/01/22 05:47:02;;;;;;;;;;;0.70;99.90;;;;;;5072952;28;19909;-63
2023/01/22 05:49:28;;;;;;;;;;;0.80;99.90;;;;;;5073621;28;19908;-62
2023/01/22 05:51:53;;;;;;;;;;;0.70;99.90;;;;;;5076808;28;19909;-62
2023/01/22 05:54:19;;;;;;;;;;;0.70;99.90;;;;;;5076521;28;19923;-64
2023/01/22 05:56:44;;;;;;;;;;;0.70;99.90;;;;;;5076720;28;19936;-63
2023/01/22 05:59:10;;;;;;;;;;;0.70;99.90;;;;;;5076666;28;19908;-62
2023/01/22 06:01:36;;;;;;;;;;;0.70;99.90;;;;;;5076373;28;19912;-63
2023/01/22 06:04:01;;;;;;;;;;;0.70;99.90;;;;;;5076285;28;19919;-64
2023/01/22 06:06:26;;;;;;;;;;;0.70;99.90;;;;;;5076269;28;20285;-63
2023/01/22 06:08:52;;;;;;;;;;;0.70;99.90;;;;;;5076238;28;19978;-63
2023/01/22 06:11:18;;;;;;;;;;;0.70;99.90;;;;;;5076435;28;19908;-62
2023/01/22 06:13:43;;;;;;;;;;;0.70;99.90;;;;;;5076424;28;19932;-62
2023/01/22 06:16:09;;;;;;;;;;;0.70;99.90;;;;;;5076107;28;19940;-62
2023/01/22 06:18:34;;;;;;;;;;;0.70;99.90;;;;;;5076083;28;19962;-62
2023/01/22 06:21:01;;;;;;;;;;;0.70;99.90;;;;;;5076066;28;19912;-62
2023/01/22 06:23:28;;;;;;;;;;;0.70;99.90;;;;;;5076130;28;20327;-62
2023/01/22 06:25:54;;;;;;;;;;;0.60;99.90;;;;;;5075892;28;20250;-62
2023/01/22 06:28:20;;;;;;;;;;;0.60;99.90;;;;;;5075918;28;20293;-64
2023/01/22 06:30:46;;;;;;;;;;;0.70;99.90;;;;;;5075894;28;19913;-62
2023/01/22 06:33:11;;;;;;;;;;;0.60;99.90;;;;;;5075786;28;19908;-62
2023/01/22 06:35:37;;;;;;;;;;;0.60;99.90;;;;;;5057900;28;19909;-62
2023/01/22 06:38:03;;;;;;;;;;;0.60;99.90;;;;;;5075753;28;19999;-62
2023/01/22 06:40:28;;;;;;;;;;;0.60;99.90;;;;;;5075935;28;20437;-62
2023/01/22 06:42:54;;;;;;;;;;;0.60;99.90;;;;;;5075377;28;20027;-63
2023/01/22 06:45:19;;;;;;;;;;;0.50;99.90;;;;;;5075803;28;19909;-63
2023/01/22 06:47:45;;;;;;;;;;;0.60;99.90;;;;;;5075765;28;19919;-63
2023/01/22 06:50:11;;;;;;;;;;;0.60;99.90;;;;;;5075737;28;19909;-62
2023/01/22 06:52:36;;;;;;;;;;;0.60;99.90;;;;;;5075421;28;19999;-62
2023/01/22 06:55:02;;;;;;;;;;;0.60;99.90;;;;;;5075378;28;20388;-62
2023/01/22 06:57:27;;;;;;;;;;;0.60;99.90;;;;;;5075345;28;19908;-62
2023/01/22 06:59:53;;;;;;;;;;;0.50;99.90;;;;;;5075264;28;20430;-63
2023/01/22 07:02:19;;;;;;;;;;;0.50;99.90;;;;;;5057256;28;19919;-63
2023/01/22 07:04:44;;;;;;;;;;;0.60;99.90;;;;;;5057216;28;20378;-62
2023/01/22 07:07:10;;;;;;;;;;;0.50;99.90;;;;;;5075406;28;20321;-63
2023/01/22 07:09:35;;;;;;;;;;;0.50;99.90;;;;;;5075000;28;19913;-63
2023/01/22 07:12:01;;;;;;;;;;;0.60;99.90;;;;;;5075274;28;19908;-63
2023/01/22 07:14:27;;;;;;;;;;;0.50;99.90;;;;;;5075034;28;19978;-62
2023/01/22 07:16:54;;;;;;;;;;;0.50;99.90;;;;;;5074929;28;20366;-63
2023/01/22 07:19:19;;;;;;;;;;;0.50;99.90;;;;;;5074943;28;19915;-63
2023/01/22 07:21:45;;;;;;;;;;;0.50;99.90;;;;;;5075083;28;20311;-63
2023/01/22 07:24:10;;;;;;;;;;;0.60;99.90;;;;;;5074974;28;19917;-63
2023/01/22 07:26:37;;;;;;;;;;;0.50;99.90;;;;;;5074752;28;19915;-63
2023/01/22 07:29:03;;;;;;;;;;;0.60;99.90;;;;;;5074720;28;19908;-63
2023/01/22 07:31:28;;;;;;;;;;;0.50;99.90;;;;;;5074626;28;20369;-63
2023/01/22 07:33:54;;;;;;;;;;;0.50;99.90;;;;;;5074585;28;19915;-63
2023/01/22 07:36:19;;;;;;;;;;;0.60;99.90;;;;;;5074512;28;19962;-63
2023/01/22 07:38:45;;;;;;;;;;;0.50;99.90;;;;;;5074483;28;19914;-65
2023/01/22 07:41:10;;;;;;;;;;;0.50;99.90;;;;;;5074363;28;19908;-64
2023/01/22 07:43:35;;;;;;;;;;;0.60;99.90;;;;;;5074192;28;19975;-63
2023/01/22 07:46:02;;;;;;;;;;;0.60;99.90;;;;;;5074624;28;19908;-63
2023/01/22 07:48:27;;;;;;;;;;;0.60;99.90;;;;;;5074299;28;19909;-63
2023/01/22 07:50:53;;;;;;;;;;;0.60;99.90;;;;;;5074281;28;20003;-64
2023/01/22 07:53:18;;;;;;;;;;;0.60;99.90;;;;;;5074308;28;20445;-63
2023/01/22 07:55:43;;;;;;;;;;;0.60;99.90;;;;;;5074219;28;19912;-63
2023/01/22 07:58:09;;;;;;;;;;;0.70;99.90;;;;;;5074122;28;19908;-63
2023/01/22 08:00:35;;;;;;;;;;;0.70;99.90;;;;;;5074071;28;19916;-63
2023/01/22 08:03:02;;;;;;;;;;;0.70;99.90;;;;;;5073957;28;19920;-63
2023/01/22 08:05:27;;;;;;;;;;;0.70;99.90;;;;;;5074033;28;20345;-63
2023/01/22 08:07:53;;;;;;;;;;;0.70;99.90;;;;;;5074270;28;19909;-64
2023/01/22 08:10:18;;;;;;;;;;;0.70;99.90;;;;;;5074212;28;20003;-63
2023/01/22 08:12:44;;;;;;;;;;;0.70;99.90;;;;;;5073761;28;19909;-63
2023/01/22 08:15:10;;;;;;;;;;;0.80;99.90;;;;;;5073892;28;19908;-63
2023/01/22 08:17:35;;;;;;;;;;;0.80;99.90;;;;;;5074140;28;19967;-63
2023/01/22 08:20:01;;;;;;;;;;;0.80;99.90;;;;;;5073818;28;20473;-63
2023/01/22 08:22:26;;;;;;;;;;;0.80;99.90;;;;;;5073991;28;19912;-63
2023/01/22 08:24:53;;;;;;;;;;;0.90;99.90;;;;;;5073990;28;19908;-63
2023/01/22 08:27:18;;;;;;;;;;;0.90;99.90;;;;;;5073745;28;20267;-63
2023/01/22 08:29:44;;;;;;;;;;;0.90;99.90;;;;;;5073726;28;19923;-63
2023/01/22 08:32:09;;;;;;;;;;;0.90;99.90;;;;;;5073680;28;19943;-63
2023/01/22 08:34:35;;;;;;;;;;;0.90;99.90;;;;;;5073929;28;19959;-63
2023/01/22 08:37:00;;;;;;;;;;;1.00;99.90;;;;;;5073896;28;19909;-63
2023/01/22 08:39:26;;;;;;;;;;;1.00;99.90;;;;;;5073846;28;19912;-63
2023/01/22 08:41:56;;;;;;;;;;;1.10;99.90;;;;;;5073311;28;20289;-62
2023/01/22 08:44:21;;;;;;;;;;;1.10;99.90;;;;;;5073814;28;19909;-63
2023/01/22 08:46:47;;;;;;;;;;;1.20;99.90;;;;;;5073624;28;20415;-62
2023/01/22 08:49:12;;;;;;;;;;;1.10;99.90;;;;;;5073513;28;20278;-62
2023/01/22 08:51:38;;;;;;;;;;;1.20;99.90;;;;;;5073470;28;19932;-63
2023/01/22 08:54:03;;;;;;;;;;;1.20;99.90;;;;;;5073460;28;19950;-63
2023/01/22 08:56:29;;;;;;;;;;;1.20;99.90;;;;;;5073446;28;19951;-63
2023/01/22 08:58:58;;;;;;;;;;;1.20;99.90;;;;;;5073721;28;19916;-63
2023/01/22 09:01:24;;;;;;;;;;;1.20;99.90;;;;;;5073677;28;20358;-64
2023/01/22 09:03:49;;;;;;;;;;;1.20;99.90;;;;;;5073372;28;19934;-63
2023/01/22 09:06:15;;;;;;;;;;;1.20;99.90;;;;;;5073570;28;19966;-63
2023/01/22 09:08:41;;;;;;;;;;;1.20;99.90;;;;;;5073549;28;19916;-63
2023/01/22 09:11:06;;;;;;;;;;;1.20;99.90;;;;;;5073481;28;20403;-64
2023/01/22 09:13:32;;;;;;;;;;;1.20;99.90;;;;;;5073240;28;19919;-64
2023/01/22 09:15:58;;;;;;;;;;;1.20;99.90;;;;;;5073343;28;19952;-63
2023/01/22 09:18:23;;;;;;;;;;;1.10;99.90;;;;;;5073541;28;20010;-63
2023/01/22 09:20:49;;;;;;;;;;;1.10;99.90;;;;;;5055399;28;19908;-63
2023/01/22 09:23:14;;;;;;;;;;;1.20;99.90;;;;;;5073449;28;19912;-63
2023/01/22 09:25:40;;;;;;;;;;;1.30;99.90;;;;;;5075524;28;20008;-63
2023/01/22 09:28:07;;;;;;;;;;;1.20;99.90;;;;;;5077289;28;20324;-63
2023/01/22 09:30:34;;;;;;;;;;;1.20;99.90;;;;;;5076940;28;19954;-63
2023/01/22 09:32:59;;;;;;;;;;;1.20;99.90;;;;;;5076887;28;19915;-63
2023/01/22 09:35:26;;;;;;;;;;;1.20;99.90;;;;;;5077064;28;19912;-63
2023/01/22 09:37:51;;;;;;;;;;;1.20;99.90;;;;;;5076920;28;19908;-63
2023/01/22 09:40:22;;;;;;;;;;;1.20;99.90;;;;;;5076744;28;20399;-63
2023/01/22 09:42:48;;;;;;;;;;;1.20;99.90;;;;;;5076521;28;20443;-63
2023/01/22 09:45:15;;;;;;;;;;;1.30;99.90;;;;;;5076659;28;20384;-63
2023/01/22 09:47:46;;;;;;;;;;;1.30;99.90;;;;;;5076619;28;19908;-63
2023/01/22 09:52:55;;;;;;;;;;;1.30;99.90;;;;;;5091339;27;19912;-63
2023/01/22 09:55:22;;;;;;;;;;;1.20;99.90;;;;;;5091213;28;20435;-63
2023/01/22 09:57:49;;;;;;;;;;;1.30;99.90;;;;;;5091118;28;19909;-63
2023/01/22 10:00:16;;;;;;;;;;;1.20;99.90;;;;;;5091085;28;19920;-63
2023/01/22 10:02:45;;;;;;;;;;;1.30;99.90;;;;;;5091275;28;19909;-63
2023/01/22 10:05:22;;;;;;;;;;;1.30;99.90;;;;;;5089795;28;19908;-62
2023/01/22 10:07:51;;;;;;;;;;;1.20;99.90;;;;;;5091222;28;19916;-63
2023/01/22 10:10:19;;;;;;;;;;;1.20;99.90;;;;;;5090930;28;20328;-63
2023/01/22 10:12:46;;;;;;;;;;;1.30;99.90;;;;;;5090712;28;19913;-63
2023/01/22 10:15:14;;;;;;;;;;;1.40;99.90;;;;;;5090764;28;20007;-63
2023/01/22 10:17:40;;;;;;;;;;;1.40;99.90;;;;;;5090767;28;20021;-63
2023/01/22 10:20:07;;;;;;;;;;;1.50;99.90;;;;;;5090920;28;19908;-64
2023/01/22 10:22:32;;;;;;;;;;;1.60;99.90;;;;;;5090964;28;19908;-63
2023/01/22 10:24:58;;;;;;;;;;;1.60;99.90;;;;;;5090576;28;19915;-63
2023/01/22 10:27:32;;;;;;;;;;;1.60;99.90;;;;;;5090794;28;19909;-62
2023/01/22 10:30:00;;;;;;;;;;;1.70;99.90;;;;;;5090516;28;19924;-63
2023/01/22 10:32:27;;;;;;;;;;;1.80;99.90;;;;;;5090377;28;19919;-63
2023/01/22 10:35:01;;;;;;;;;;;2.00;99.90;;;;;;5090436;28;19908;-63
2023/01/22 10:37:26;;;;;;;;;;;2.10;99.90;;;;;;5090353;28;19908;-62
2023/01/22 10:39:55;;;;;;;;;;;2.20;99.90;;;;;;5090270;28;20321;-62
2023/01/22 10:42:22;;;;;;;;;;;2.40;99.90;;;;;;5090291;28;19957;-62
2023/01/22 10:44:48;;;;;;;;;;;2.40;99.90;;;;;;5090230;28;19909;-62
2023/01/22 10:47:19;;;;;;;;;;;2.00;99.90;;;;;;5090182;28;19920;-62
2023/01/22 10:49:45;;;;;;;;;;;2.20;99.90;;;;;;5090392;28;19912;-62
2023/01/22 10:52:19;;;;;;;;;;;2.20;99.90;;;;;;5104741;28;19959;-63
2023/01/22 10:54:49;;;;;;;;;;;2.20;99.90;;;;;;5110363;28;19908;-62
2023/01/22 10:57:18;;;;;;;;;;;1.90;99.90;;;;;;5092119;28;20289;-62
2023/01/22 11:00:04;;;;;;;;;;;2.00;99.90;;;;;;5092201;28;19958;-62
2023/01/22 11:02:32;;;;;;;;;;;1.80;99.90;;;;;;5106320;28;19908;-62
2023/01/22 11:05:05;;;;;;;;;;;1.80;99.90;;;;;;5096612;28;20003;-62
2023/01/22 11:07:32;;;;;;;;;;;1.70;99.90;;;;;;5096828;28;20379;-62
2023/01/22 11:10:06;;;;;;;;;;;1.80;99.90;;;;;;5096796;28;19954;-62
2023/01/22 11:12:35;;;;;;;;;;;1.60;99.90;;;;;;5096431;28;20361;-62
2023/01/22 11:15:20;;;;;;;;;;;1.70;99.90;;;;;;5096717;28;19908;-62
2023/01/22 11:17:49;;;;;;;;;;;1.80;99.90;;;;;;5096279;28;19909;-62
2023/01/22 11:20:20;;;;;;;;;;;1.80;99.90;;;;;;5096615;28;19911;-64
2023/01/22 11:22:50;;;;;;;;;;;1.80;99.90;;;;;;5096584;28;19908;-62
2023/01/22 11:25:15;;;;;;;;;;;1.90;99.90;;;;;;5096526;28;19974;-62
2023/01/22 11:27:53;;;;;;;;;;;1.80;99.90;;;;;;5096149;28;19912;-62
2023/01/22 11:30:39;;;;;;;;;;;1.90;99.90;;;;;;5096043;28;19908;-62
2023/01/22 11:33:24;;;;;;;;;;;1.80;99.90;;;;;;5095834;28;19916;-62
2023/01/22 11:35:52;;;;;;;;;;;1.70;99.90;;;;;;5095868;28;20015;-62
2023/01/22 11:38:23;;;;;;;;;;;1.80;99.90;;;;;;5095971;28;19908;-64
2023/01/22 11:41:09;;;;;;;;;;;1.80;99.90;;;;;;5077801;28;19952;-62
2023/01/22 11:43:45;;;;;;;;;;;1.90;99.90;;;;;;5095714;28;19919;-62
2023/01/22 11:46:19;;;;;;;;;;;1.90;99.90;;;;;;5095882;28;19912;-62
2023/01/22 11:49:04;;;;;;;;;;;1.80;99.90;;;;;;5096059;28;19908;-62
2023/01/22 11:51:32;;;;;;;;;;;1.90;99.90;;;;;;5095308;28;19920;-62
2023/01/22 11:54:17;;;;;;;;;;;2.10;99.90;;;;;;5095714;28;19943;-62
2023/01/22 11:57:03;;;;;;;;;;;2.00;99.90;;;;;;5095479;28;19912;-62
2023/01/22 11:59:40;;;;;;;;;;;2.10;99.90;;;;;;5095439;28;19916;-62
2023/01/22 12:02:20;;;;;;;;;;;2.10;99.90;;;;;;5095791;28;19912;-62
2023/01/22 12:05:05;;;;;;;;;;;1.90;99.90;;;;;;5095458;28;19912;-62
2023/01/22 12:07:51;;;;;;;;;;;1.90;99.90;;;;;;5095297;28;20270;-62
2023/01/22 12:10:26;;;;;;;;;;;2.00;99.90;;;;;;5095193;28;20274;-62
2023/01/22 12:15:51;;;;;;;;;;;1.90;99.90;;;;;;5071112;28;19913;-62
2023/01/22 12:18:37;;;;;;;;;;;1.90;99.90;;;;;;5070910;28;19912;-62
2023/01/22 12:21:06;;;;;;;;;;;2.00;99.90;;;;;;5070954;28;19913;-63
2023/01/22 12:23:41;;;;;;;;;;;2.00;99.90;;;;;;5070837;28;19978;-62
2023/01/22 12:26:16;;;;;;;;;;;1.90;99.90;;;;;;5071072;28;19909;-62
2023/01/22 12:28:46;;;;;;;;;;;1.90;99.90;;;;;;5069505;28;19917;-62
2023/01/22 12:31:18;;;;;;;;;;;2.00;99.90;;;;;;5070719;28;20012;-62
2023/01/22 12:33:44;;;;;;;;;;;1.90;99.90;;;;;;5070802;28;19917;-63
2023/01/22 12:36:12;;;;;;;;;;;2.00;99.90;;;;;;5070876;28;19916;-63
2023/01/22 12:38:41;;;;;;;;;;;2.00;99.90;;;;;;5070829;28;19915;-63
2023/01/22 12:43:55;;;;;;;;;;;2.10;99.90;;;;;;5091380;27;19912;-62
2023/01/22 12:46:41;;;;;;;;;;;2.10;99.90;;;;;;5091443;28;20378;-63
2023/01/22 12:49:08;;;;;;;;;;;2.10;99.90;;;;;;5091056;28;19909;-62
2023/01/22 12:51:41;;;;;;;;;;;2.10;99.90;;;;;;5091076;28;20255;-63
2023/01/22 12:54:27;;;;;;;;;;;2.20;99.90;;;;;;5091291;28;19916;-62
2023/01/22 12:57:08;;;;;;;;;;;2.10;99.90;;;;;;5090962;28;19909;-62
2023/01/22 13:02:20;;;;;;;;;;;2.20;99.90;;;;;;5091306;27;19912;-62
2023/01/22 13:04:46;;;;;;;;;;;2.20;99.90;;;;;;5091474;28;19962;-63
2023/01/22 13:07:31;;;;;;;;;;;2.20;99.90;;;;;;5091135;28;20374;-63
2023/01/22 13:10:17;;;;;;;;;;;2.20;99.90;;;;;;5091021;28;19908;-63
2023/01/22 13:12:45;;;;;;;;;;;2.20;99.90;;;;;;5091078;28;19909;-63
2023/01/22 13:15:29;;;;;;;;;;;2.20;99.90;;;;;;5091215;28;19914;-63
2023/01/22 13:17:58;;;;;;;;;;;2.20;99.90;;;;;;5091190;28;19959;-63
2023/01/22 13:20:25;;;;;;;;;;;2.30;99.90;;;;;;5091046;28;20307;-63
2023/01/22 13:22:53;;;;;;;;;;;2.30;99.90;;;;;;5091394;28;19908;-63
2023/01/22 13:25:22;;;;;;;;;;;2.30;99.90;;;;;;5091066;28;19934;-63
2023/01/22 13:27:48;;;;;;;;;;;2.30;99.90;;;;;;5089496;28;19909;-63
2023/01/22 13:30:15;;;;;;;;;;;2.30;99.90;;;;;;5090914;28;19908;-63
2023/01/22 13:32:41;;;;;;;;;;;2.30;99.90;;;;;;5090918;28;19912;-63
2023/01/22 13:35:10;;;;;;;;;;;2.40;99.90;;;;;;5090803;28;19908;-63
2023/01/22 13:37:37;;;;;;;;;;;2.40;99.90;;;;;;5090574;28;20385;-63
2023/01/22 13:40:22;;;;;;;;;;;2.40;99.90;;;;;;5090458;28;19967;-63
2023/01/22 13:42:48;;;;;;;;;;;2.40;99.90;;;;;;5090438;28;19909;-63
2023/01/22 13:45:16;;;;;;;;;;;2.30;99.90;;;;;;5090675;28;19974;-63
2023/01/22 13:47:42;;;;;;;;;;;2.40;99.90;;;;;;5090371;28;19908;-63
2023/01/22 13:50:24;;;;;;;;;;;2.30;99.90;;;;;;5090282;28;19908;-63
2023/01/22 13:52:49;;;;;;;;;;;2.30;99.90;;;;;;5090075;28;19995;-62
2023/01/22 13:55:16;;;;;;;;;;;2.20;99.90;;;;;;5090247;28;19955;-63
2023/01/22 13:57:46;;;;;;;;;;;2.30;99.90;;;;;;5122999;28;19909;-63
2023/01/22 14:00:31;;;;;;;;;;;2.30;99.90;;;;;;5093731;28;19950;-63
2023/01/22 14:02:57;;;;;;;;;;;2.20;99.90;;;;;;5110313;28;19915;-63
2023/01/22 14:05:24;;;;;;;;;;;2.20;99.90;;;;;;5110636;28;19912;-62
2023/01/22 14:07:50;;;;;;;;;;;2.20;99.90;;;;;;5110628;28;19922;-62
2023/01/22 14:10:18;;;;;;;;;;;2.20;99.90;;;;;;5110257;28;19915;-63
2023/01/22 14:12:43;;;;;;;;;;;2.20;99.90;;;;;;5101523;28;19961;-62
2023/01/22 14:15:14;;;;;;;;;;;2.20;99.90;;;;;;5096621;28;20393;-63
2023/01/22 14:17:39;;;;;;;;;;;2.20;99.90;;;;;;5096533;28;19908;-63
2023/01/22 14:20:05;;;;;;;;;;;2.20;99.90;;;;;;5096401;28;20286;-63
2023/01/22 14:22:30;;;;;;;;;;;2.20;99.90;;;;;;5096713;28;19958;-63
2023/01/22 14:24:56;;;;;;;;;;;2.20;99.90;;;;;;5096370;28;20396;-62
2023/01/22 14:27:22;;;;;;;;;;;2.20;99.90;;;;;;5078273;28;19931;-63
2023/01/22 14:29:48;;;;;;;;;;;2.20;99.90;;;;;;5096313;28;19947;-63
2023/01/22 14:32:14;;;;;;;;;;;2.20;99.90;;;;;;5096529;28;19908;-62
2023/01/22 14:34:39;;;;;;;;;;;2.20;99.90;;;;;;5096235;28;20324;-63
2023/01/22 14:37:05;;;;;;;;;;;2.20;99.90;;;;;;5096438;28;19908;-63
2023/01/22 14:39:32;;;;;;;;;;;2.20;99.90;;;;;;5096389;28;20358;-63
2023/01/22 14:41:57;;;;;;;;;;;2.20;99.90;;;;;;5078120;28;20494;-65
2023/01/22 14:44:23;;;;;;;;;;;2.20;99.90;;;;;;5096329;28;19916;-62
2023/01/22 14:46:50;;;;;;;;;;;2.20;99.90;;;;;;5096287;28;19955;-63
2023/01/22 14:49:16;;;;;;;;;;;2.20;99.90;;;;;;5096223;28;19915;-62
2023/01/22 14:51:42;;;;;;;;;;;2.20;99.90;;;;;;5095955;28;19908;-63